sensor_id;sensor_type;location;lat;lon;timestamp;pressure;altitude;pressure_sealevel;temperature
40624;BMP280;26325;48.594;11.650;2022-10-17T00:00:40;97289.22;;;13.72
40624;BMP280;26325;48.594;11.650;2022-10-17T00:03:05;97288.38;;;13.67
40624;BMP280;26325;48.594;11.650;2022-10-17T00:05:31;97303.16;;;13.87
40624;BMP280;26325;48.594;11.650;2022-10-17T00:07:56;97292.56;;;13.68
40624;BMP280;26325;48.594;11.650;2022-10-17T00:10:22;97298.88;;;13.55
40624;BMP280;26325;48.594;11.650;2022-10-17T00:12:50;97296.94;;;13.67
40624;BMP280;26325;48.594;11.650;2022-10-17T00:15:17;97302.63;;;13.64
40624;BMP280;26325;48.594;11.650;2022-10-17T00:17:43;97292.91;;;13.55
40624;BMP280;26325;48.594;11.650;2022-10-17T00:20:08;97295.97;;;13.52
40624;BMP280;26325;48.594;11.650;2022-10-17T00:22:34;97294.00;;;13.22
40624;BMP280;26325;48.594;11.650;2022-10-17T00:24:59;97303.50;;;13.33
40624;BMP280;26325;48.594;11.650;2022-10-17T00:27:25;97296.81;;;13.36
40624;BMP280;26325;48.594;11.650;2022-10-17T00:29:51;97299.88;;;13.33
40624;BMP280;26325;48.594;11.650;2022-10-17T00:32:17;97305.81;;;13.13
40624;BMP280;26325;48.594;11.650;2022-10-17T00:34:45;97301.84;;;12.90
40624;BMP280;26325;48.594;11.650;2022-10-17T00:37:11;97299.94;;;13.01
40624;BMP280;26325;48.594;11.650;2022-10-17T00:39:37;97305.28;;;13.11
40624;BMP280;26325;48.594;11.650;2022-10-17T00:42:04;97301.19;;;13.15
40624;BMP280;26325;48.594;11.650;2022-10-17T00:47:01;97298.03;;;13.13
40624;BMP280;26325;48.594;11.650;2022-10-17T00:49:29;97303.28;;;12.81
40624;BMP280;26325;48.594;11.650;2022-10-17T00:52:09;97302.16;;;12.77
40624;BMP280;26325;48.594;11.650;2022-10-17T00:54:39;97300.91;;;12.79
40624;BMP280;26325;48.594;11.650;2022-10-17T00:57:05;97306.31;;;12.78
40624;BMP280;26325;48.594;11.650;2022-10-17T00:59:32;97315.31;;;12.59
40624;BMP280;26325;48.594;11.650;2022-10-17T01:02:18;97307.19;;;12.67
40624;BMP280;26325;48.594;11.650;2022-10-17T01:04:46;97307.56;;;12.76
40624;BMP280;26325;48.594;11.650;2022-10-17T01:07:12;97309.69;;;12.95
40624;BMP280;26325;48.594;11.650;2022-10-17T01:09:38;97299.06;;;13.12
40624;BMP280;26325;48.594;11.650;2022-10-17T01:12:21;97307.00;;;13.22
40624;BMP280;26325;48.594;11.650;2022-10-17T01:17:51;97310.56;;;13.37
40624;BMP280;26325;48.594;11.650;2022-10-17T01:20:52;97302.06;;;13.41
40624;BMP280;26325;48.594;11.650;2022-10-17T01:23:35;97302.97;;;13.31
40624;BMP280;26325;48.594;11.650;2022-10-17T01:26:21;97302.97;;;13.31
40624;BMP280;26325;48.594;11.650;2022-10-17T01:31:47;97297.69;;;13.26
40624;BMP280;26325;48.594;11.650;2022-10-17T01:34:19;97295.13;;;13.10
40624;BMP280;26325;48.594;11.650;2022-10-17T01:37:00;97297.75;;;12.94
40624;BMP280;26325;48.594;11.650;2022-10-17T01:47:21;97294.19;;;12.99
40624;BMP280;26325;48.594;11.650;2022-10-17T01:49:50;97301.34;;;12.93
40624;BMP280;26325;48.594;11.650;2022-10-17T01:52:22;97306.78;;;12.16
40624;BMP280;26325;48.594;11.650;2022-10-17T01:54:57;97305.19;;;12.15
40624;BMP280;26325;48.594;11.650;2022-10-17T01:57:30;97308.31;;;12.44
40624;BMP280;26325;48.594;11.650;2022-10-17T01:59:58;97304.38;;;12.57
40624;BMP280;26325;48.594;11.650;2022-10-17T02:02:26;97302.59;;;12.58
40624;BMP280;26325;48.594;11.650;2022-10-17T02:04:52;97298.19;;;12.58
40624;BMP280;26325;48.594;11.650;2022-10-17T02:07:20;97304.03;;;12.65
40624;BMP280;26325;48.594;11.650;2022-10-17T02:09:45;97303.59;;;12.57
40624;BMP280;26325;48.594;11.650;2022-10-17T02:18:15;97301.91;;;12.19
40624;BMP280;26325;48.594;11.650;2022-10-17T02:20:57;97296.91;;;12.13
40624;BMP280;26325;48.594;11.650;2022-10-17T02:29:17;97304.88;;;11.45
40624;BMP280;26325;48.594;11.650;2022-10-17T02:34:21;97303.75;;;11.42
40624;BMP280;26325;48.594;11.650;2022-10-17T02:36:51;97301.31;;;11.74
40624;BMP280;26325;48.594;11.650;2022-10-17T02:39:19;97303.69;;;11.64
40624;BMP280;26325;48.594;11.650;2022-10-17T02:41:45;97299.34;;;11.53
40624;BMP280;26325;48.594;11.650;2022-10-17T02:44:12;97307.59;;;10.94
40624;BMP280;26325;48.594;11.650;2022-10-17T02:46:38;97314.44;;;11.11
40624;BMP280;26325;48.594;11.650;2022-10-17T02:51:38;97315.44;;;11.10
40624;BMP280;26325;48.594;11.650;2022-10-17T02:54:32;97317.94;;;11.39
40624;BMP280;26325;48.594;11.650;2022-10-17T02:57:01;97319.50;;;11.51
40624;BMP280;26325;48.594;11.650;2022-10-17T02:59:29;97331.63;;;11.28
40624;BMP280;26325;48.594;11.650;2022-10-17T03:01:55;97332.00;;;11.32
40624;BMP280;26325;48.594;11.650;2022-10-17T03:04:21;97327.81;;;10.97
40624;BMP280;26325;48.594;11.650;2022-10-17T03:06:47;97329.03;;;10.95
40624;BMP280;26325;48.594;11.650;2022-10-17T03:09:13;97322.97;;;10.78
40624;BMP280;26325;48.594;11.650;2022-10-17T03:11:39;97329.72;;;11.24
40624;BMP280;26325;48.594;11.650;2022-10-17T03:14:06;97324.13;;;11.38
40624;BMP280;26325;48.594;11.650;2022-10-17T03:16:32;97333.22;;;11.41
40624;BMP280;26325;48.594;11.650;2022-10-17T03:19:01;97327.69;;;11.48
40624;BMP280;26325;48.594;11.650;2022-10-17T03:21:26;97330.28;;;11.37
40624;BMP280;26325;48.594;11.650;2022-10-17T03:23:52;97340.97;;;11.41
40624;BMP280;26325;48.594;11.650;2022-10-17T03:26:17;97333.56;;;11.44
40624;BMP280;26325;48.594;11.650;2022-10-17T03:28:42;97343.66;;;11.45
40624;BMP280;26325;48.594;11.650;2022-10-17T03:31:09;97336.47;;;11.36
40624;BMP280;26325;48.594;11.650;2022-10-17T03:33:35;97340.38;;;11.27
40624;BMP280;26325;48.594;11.650;2022-10-17T03:36:09;97343.66;;;11.23
40624;BMP280;26325;48.594;11.650;2022-10-17T03:38:35;97341.63;;;10.80
40624;BMP280;26325;48.594;11.650;2022-10-17T03:41:02;97341.88;;;10.90
40624;BMP280;26325;48.594;11.650;2022-10-17T03:43:27;97341.31;;;11.22
40624;BMP280;26325;48.594;11.650;2022-10-17T03:45:53;97348.41;;;11.37
40624;BMP280;26325;48.594;11.650;2022-10-17T03:48:20;97354.00;;;11.45
40624;BMP280;26325;48.594;11.650;2022-10-17T03:50:48;97357.16;;;11.25
40624;BMP280;26325;48.594;11.650;2022-10-17T03:53:13;97349.72;;;10.72
40624;BMP280;26325;48.594;11.650;2022-10-17T03:55:38;97352.53;;;10.93
40624;BMP280;26325;48.594;11.650;2022-10-17T03:58:04;97344.63;;;10.55
40624;BMP280;26325;48.594;11.650;2022-10-17T04:00:29;97339.25;;;10.56
40624;BMP280;26325;48.594;11.650;2022-10-17T04:02:56;97343.19;;;10.70
40624;BMP280;26325;48.594;11.650;2022-10-17T04:05:22;97352.22;;;10.90
40624;BMP280;26325;48.594;11.650;2022-10-17T04:07:47;97347.59;;;11.14
40624;BMP280;26325;48.594;11.650;2022-10-17T04:10:13;97344.91;;;11.21
40624;BMP280;26325;48.594;11.650;2022-10-17T04:12:38;97350.97;;;10.81
40624;BMP280;26325;48.594;11.650;2022-10-17T04:15:04;97349.94;;;10.82
40624;BMP280;26325;48.594;11.650;2022-10-17T04:17:30;97352.19;;;11.01
40624;BMP280;26325;48.594;11.650;2022-10-17T04:19:55;97350.38;;;10.79
40624;BMP280;26325;48.594;11.650;2022-10-17T04:22:21;97359.44;;;10.48
40624;BMP280;26325;48.594;11.650;2022-10-17T04:24:47;97358.78;;;10.24
40624;BMP280;26325;48.594;11.650;2022-10-17T04:27:12;97369.88;;;10.13
40624;BMP280;26325;48.594;11.650;2022-10-17T04:29:37;97356.59;;;10.09
40624;BMP280;26325;48.594;11.650;2022-10-17T04:32:03;97343.78;;;10.43
40624;BMP280;26325;48.594;11.650;2022-10-17T04:34:29;97359.38;;;10.66
40624;BMP280;26325;48.594;11.650;2022-10-17T04:36:54;97366.47;;;10.81
40624;BMP280;26325;48.594;11.650;2022-10-17T04:39:19;97381.22;;;10.52
40624;BMP280;26325;48.594;11.650;2022-10-17T04:41:45;97385.81;;;10.50
40624;BMP280;26325;48.594;11.650;2022-10-17T04:44:10;97380.09;;;10.59
40624;BMP280;26325;48.594;11.650;2022-10-17T04:46:36;97384.63;;;10.64
40624;BMP280;26325;48.594;11.650;2022-10-17T04:49:05;97382.78;;;10.53
40624;BMP280;26325;48.594;11.650;2022-10-17T04:51:30;97385.19;;;10.66
40624;BMP280;26325;48.594;11.650;2022-10-17T04:53:55;97379.50;;;10.75
40624;BMP280;26325;48.594;11.650;2022-10-17T04:56:22;97387.34;;;10.80
40624;BMP280;26325;48.594;11.650;2022-10-17T04:58:48;97383.66;;;10.87
40624;BMP280;26325;48.594;11.650;2022-10-17T05:01:16;97379.50;;;10.86
40624;BMP280;26325;48.594;11.650;2022-10-17T05:03:42;97379.16;;;10.94
40624;BMP280;26325;48.594;11.650;2022-10-17T05:06:12;97378.03;;;11.01
40624;BMP280;26325;48.594;11.650;2022-10-17T05:08:38;97376.72;;;10.99
40624;BMP280;26325;48.594;11.650;2022-10-17T05:11:05;97384.09;;;10.84
40624;BMP280;26325;48.594;11.650;2022-10-17T05:13:32;97386.56;;;10.79
40624;BMP280;26325;48.594;11.650;2022-10-17T05:15:59;97384.19;;;10.66
40624;BMP280;26325;48.594;11.650;2022-10-17T05:18:24;97390.63;;;10.18
40624;BMP280;26325;48.594;11.650;2022-10-17T05:20:50;97390.53;;;9.95
40624;BMP280;26325;48.594;11.650;2022-10-17T05:23:15;97388.59;;;9.91
40624;BMP280;26325;48.594;11.650;2022-10-17T05:25:41;97386.25;;;10.18
40624;BMP280;26325;48.594;11.650;2022-10-17T05:28:06;97398.97;;;10.48
40624;BMP280;26325;48.594;11.650;2022-10-17T05:30:33;97393.97;;;10.65
40624;BMP280;26325;48.594;11.650;2022-10-17T05:32:58;97398.22;;;10.70
40624;BMP280;26325;48.594;11.650;2022-10-17T05:35:24;97411.47;;;10.34
40624;BMP280;26325;48.594;11.650;2022-10-17T05:37:49;97403.78;;;10.45
40624;BMP280;26325;48.594;11.650;2022-10-17T05:40:15;97405.34;;;10.46
40624;BMP280;26325;48.594;11.650;2022-10-17T05:42:47;97407.72;;;10.59
40624;BMP280;26325;48.594;11.650;2022-10-17T05:45:13;97404.66;;;10.39
40624;BMP280;26325;48.594;11.650;2022-10-17T05:47:39;97410.72;;;10.16
40624;BMP280;26325;48.594;11.650;2022-10-17T05:50:05;97410.66;;;10.22
40624;BMP280;26325;48.594;11.650;2022-10-17T05:52:31;97406.31;;;10.34
40624;BMP280;26325;48.594;11.650;2022-10-17T05:54:58;97404.91;;;10.20
40624;BMP280;26325;48.594;11.650;2022-10-17T05:57:24;97416.66;;;10.16
40624;BMP280;26325;48.594;11.650;2022-10-17T05:59:50;97408.06;;;10.22
40624;BMP280;26325;48.594;11.650;2022-10-17T06:02:16;97414.56;;;10.25
40624;BMP280;26325;48.594;11.650;2022-10-17T06:04:41;97416.44;;;10.18
40624;BMP280;26325;48.594;11.650;2022-10-17T06:07:10;97420.22;;;10.62
40624;BMP280;26325;48.594;11.650;2022-10-17T06:09:36;97421.97;;;10.50
40624;BMP280;26325;48.594;11.650;2022-10-17T06:12:02;97422.59;;;10.34
40624;BMP280;26325;48.594;11.650;2022-10-17T06:14:27;97415.25;;;10.49
40624;BMP280;26325;48.594;11.650;2022-10-17T06:16:55;97414.16;;;10.56
40624;BMP280;26325;48.594;11.650;2022-10-17T06:19:21;97419.31;;;10.67
40624;BMP280;26325;48.594;11.650;2022-10-17T06:21:48;97419.63;;;11.11
40624;BMP280;26325;48.594;11.650;2022-10-17T06:24:14;97445.78;;;11.54
40624;BMP280;26325;48.594;11.650;2022-10-17T06:26:39;97453.44;;;11.72
40624;BMP280;26325;48.594;11.650;2022-10-17T06:29:05;97447.66;;;12.96
40624;BMP280;26325;48.594;11.650;2022-10-17T06:31:30;97450.13;;;14.25
40624;BMP280;26325;48.594;11.650;2022-10-17T06:33:56;97441.66;;;14.13
40624;BMP280;26325;48.594;11.650;2022-10-17T06:36:21;97449.69;;;14.80
40624;BMP280;26325;48.594;11.650;2022-10-17T06:38:46;97437.41;;;16.63
40624;BMP280;26325;48.594;11.650;2022-10-17T06:41:13;97441.97;;;17.89
40624;BMP280;26325;48.594;11.650;2022-10-17T06:43:42;97436.34;;;19.57
40624;BMP280;26325;48.594;11.650;2022-10-17T06:46:16;97432.19;;;20.52
40624;BMP280;26325;48.594;11.650;2022-10-17T06:48:42;97447.88;;;20.34
40624;BMP280;26325;48.594;11.650;2022-10-17T06:51:08;97443.28;;;19.99
40624;BMP280;26325;48.594;11.650;2022-10-17T06:53:35;97451.72;;;19.68
40624;BMP280;26325;48.594;11.650;2022-10-17T06:56:01;97462.09;;;21.10
40624;BMP280;26325;48.594;11.650;2022-10-17T06:58:37;97450.81;;;20.92
40624;BMP280;26325;48.594;11.650;2022-10-17T07:01:08;97463.34;;;21.18
40624;BMP280;26325;48.594;11.650;2022-10-17T07:03:34;97466.91;;;20.67
40624;BMP280;26325;48.594;11.650;2022-10-17T07:05:59;97468.88;;;19.84
40624;BMP280;26325;48.594;11.650;2022-10-17T07:08:25;97478.56;;;19.18
40624;BMP280;26325;48.594;11.650;2022-10-17T07:10:51;97468.25;;;18.17
40624;BMP280;26325;48.594;11.650;2022-10-17T07:13:17;97485.03;;;17.77
40624;BMP280;26325;48.594;11.650;2022-10-17T07:15:43;97484.03;;;17.44
40624;BMP280;26325;48.594;11.650;2022-10-17T07:18:08;97492.66;;;17.54
40624;BMP280;26325;48.594;11.650;2022-10-17T07:20:34;97478.72;;;18.22
40624;BMP280;26325;48.594;11.650;2022-10-17T07:22:59;97481.28;;;20.01
40624;BMP280;26325;48.594;11.650;2022-10-17T07:25:25;97485.94;;;20.96
40624;BMP280;26325;48.594;11.650;2022-10-17T07:27:51;97485.88;;;22.17
40624;BMP280;26325;48.594;11.650;2022-10-17T07:30:18;97482.88;;;23.80
40624;BMP280;26325;48.594;11.650;2022-10-17T07:32:43;97483.69;;;24.10
40624;BMP280;26325;48.594;11.650;2022-10-17T07:35:09;97489.69;;;22.90
40624;BMP280;26325;48.594;11.650;2022-10-17T07:37:36;97490.59;;;20.62
40624;BMP280;26325;48.594;11.650;2022-10-17T07:40:03;97505.97;;;19.67
40624;BMP280;26325;48.594;11.650;2022-10-17T07:42:28;97499.56;;;19.08
40624;BMP280;26325;48.594;11.650;2022-10-17T07:44:54;97510.91;;;18.89
40624;BMP280;26325;48.594;11.650;2022-10-17T07:47:20;97500.56;;;18.55
40624;BMP280;26325;48.594;11.650;2022-10-17T07:49:45;97502.13;;;18.51
40624;BMP280;26325;48.594;11.650;2022-10-17T07:52:12;97516.31;;;18.40
40624;BMP280;26325;48.594;11.650;2022-10-17T07:54:38;97510.09;;;18.22
40624;BMP280;26325;48.594;11.650;2022-10-17T07:57:05;97527.91;;;18.05
40624;BMP280;26325;48.594;11.650;2022-10-17T07:59:34;97519.75;;;18.26
40624;BMP280;26325;48.594;11.650;2022-10-17T08:01:59;97521.25;;;18.42
40624;BMP280;26325;48.594;11.650;2022-10-17T08:04:26;97511.41;;;18.96
40624;BMP280;26325;48.594;11.650;2022-10-17T08:06:51;97513.94;;;19.85
40624;BMP280;26325;48.594;11.650;2022-10-17T08:09:17;97500.13;;;20.03
40624;BMP280;26325;48.594;11.650;2022-10-17T08:11:42;97498.41;;;20.44
40624;BMP280;26325;48.594;11.650;2022-10-17T08:14:09;97508.75;;;20.31
40624;BMP280;26325;48.594;11.650;2022-10-17T08:16:34;97504.97;;;20.47
40624;BMP280;26325;48.594;11.650;2022-10-17T08:19:00;97507.09;;;20.86
40624;BMP280;26325;48.594;11.650;2022-10-17T08:21:29;97502.38;;;20.83
40624;BMP280;26325;48.594;11.650;2022-10-17T08:23:54;97507.69;;;21.55
40624;BMP280;26325;48.594;11.650;2022-10-17T08:26:22;97506.03;;;20.87
40624;BMP280;26325;48.594;11.650;2022-10-17T08:28:53;97505.06;;;21.19
40624;BMP280;26325;48.594;11.650;2022-10-17T08:31:19;97508.13;;;21.26
40624;BMP280;26325;48.594;11.650;2022-10-17T08:33:45;97512.97;;;21.37
40624;BMP280;26325;48.594;11.650;2022-10-17T08:36:16;97508.41;;;21.42
40624;BMP280;26325;48.594;11.650;2022-10-17T08:38:42;97517.44;;;21.37
40624;BMP280;26325;48.594;11.650;2022-10-17T08:46:10;97510.72;;;22.24
40624;BMP280;26325;48.594;11.650;2022-10-17T08:48:38;97515.72;;;22.52
40624;BMP280;26325;48.594;11.650;2022-10-17T08:51:12;97513.81;;;22.00
40624;BMP280;26325;48.594;11.650;2022-10-17T08:53:44;97524.75;;;21.39
40624;BMP280;26325;48.594;11.650;2022-10-17T08:56:25;97513.28;;;22.42
40624;BMP280;26325;48.594;11.650;2022-10-17T08:58:51;97503.38;;;22.79
40624;BMP280;26325;48.594;11.650;2022-10-17T09:01:33;97505.13;;;22.96
40624;BMP280;26325;48.594;11.650;2022-10-17T09:12:21;97494.03;;;23.21
40624;BMP280;26325;48.594;11.650;2022-10-17T09:17:51;97507.66;;;23.36
40624;BMP280;26325;48.594;11.650;2022-10-17T09:20:23;97516.75;;;23.17
40624;BMP280;26325;48.594;11.650;2022-10-17T09:23:05;97511.06;;;23.71
40624;BMP280;26325;48.594;11.650;2022-10-17T09:25:39;97528.38;;;23.85
40624;BMP280;26325;48.594;11.650;2022-10-17T09:30:42;97527.97;;;23.35
40624;BMP280;26325;48.594;11.650;2022-10-17T09:33:11;97527.97;;;23.35
40624;BMP280;26325;48.594;11.650;2022-10-17T09:35:37;97516.47;;;23.74
40624;BMP280;26325;48.594;11.650;2022-10-17T09:38:10;97528.03;;;24.00
40624;BMP280;26325;48.594;11.650;2022-10-17T09:40:38;97531.38;;;24.13
40624;BMP280;26325;48.594;11.650;2022-10-17T09:43:04;97526.84;;;24.65
40624;BMP280;26325;48.594;11.650;2022-10-17T09:45:32;97524.31;;;25.15
40624;BMP280;26325;48.594;11.650;2022-10-17T09:50:41;97528.16;;;24.84
40624;BMP280;26325;48.594;11.650;2022-10-17T09:53:17;97535.69;;;25.23
40624;BMP280;26325;48.594;11.650;2022-10-17T09:55:47;97531.69;;;24.80
40624;BMP280;26325;48.594;11.650;2022-10-17T09:58:13;97528.34;;;24.28
40624;BMP280;26325;48.594;11.650;2022-10-17T10:00:46;97521.94;;;24.50
40624;BMP280;26325;48.594;11.650;2022-10-17T10:03:19;97522.16;;;24.03
40624;BMP280;26325;48.594;11.650;2022-10-17T10:06:02;97528.63;;;24.86
40624;BMP280;26325;48.594;11.650;2022-10-17T10:08:36;97528.25;;;25.25
40624;BMP280;26325;48.594;11.650;2022-10-17T10:11:05;97530.16;;;25.91
40624;BMP280;26325;48.594;11.650;2022-10-17T10:13:34;97519.34;;;26.21
40624;BMP280;26325;48.594;11.650;2022-10-17T10:16:30;97522.72;;;26.38
40624;BMP280;26325;48.594;11.650;2022-10-17T10:18:56;97529.03;;;26.00
40624;BMP280;26325;48.594;11.650;2022-10-17T10:21:23;97523.88;;;26.20
40624;BMP280;26325;48.594;11.650;2022-10-17T10:24:12;97527.41;;;26.41
40624;BMP280;26325;48.594;11.650;2022-10-17T10:26:44;97512.25;;;26.86
40624;BMP280;26325;48.594;11.650;2022-10-17T10:29:36;97525.03;;;26.56
40624;BMP280;26325;48.594;11.650;2022-10-17T10:32:37;97515.63;;;26.22
40624;BMP280;26325;48.594;11.650;2022-10-17T10:37:42;97516.84;;;27.34
40624;BMP280;26325;48.594;11.650;2022-10-17T10:40:16;97514.44;;;27.41
40624;BMP280;26325;48.594;11.650;2022-10-17T10:42:46;97507.75;;;26.87
40624;BMP280;26325;48.594;11.650;2022-10-17T10:48:01;97514.00;;;27.11
40624;BMP280;26325;48.594;11.650;2022-10-17T10:50:39;97509.19;;;27.04
40624;BMP280;26325;48.594;11.650;2022-10-17T10:58:54;97509.47;;;26.46
40624;BMP280;26325;48.594;11.650;2022-10-17T11:02:03;97512.44;;;26.37
40624;BMP280;26325;48.594;11.650;2022-10-17T11:12:42;97508.22;;;27.37
40624;BMP280;26325;48.594;11.650;2022-10-17T11:18:15;97495.66;;;27.46
40624;BMP280;26325;48.594;11.650;2022-10-17T11:21:09;97508.28;;;27.00
40624;BMP280;26325;48.594;11.650;2022-10-17T11:23:45;97488.94;;;27.28
40624;BMP280;26325;48.594;11.650;2022-10-17T11:26:20;97490.06;;;28.66
40624;BMP280;26325;48.594;11.650;2022-10-17T11:28:55;97495.38;;;29.36
40624;BMP280;26325;48.594;11.650;2022-10-17T11:31:23;97485.59;;;30.77
40624;BMP280;26325;48.594;11.650;2022-10-17T11:36:18;97491.25;;;29.77
40624;BMP280;26325;48.594;11.650;2022-10-17T11:41:15;97495.06;;;28.67
40624;BMP280;26325;48.594;11.650;2022-10-17T11:43:58;97499.16;;;28.53
40624;BMP280;26325;48.594;11.650;2022-10-17T11:46:27;97495.63;;;28.72
40624;BMP280;26325;48.594;11.650;2022-10-17T11:49:27;97489.97;;;28.62
40624;BMP280;26325;48.594;11.650;2022-10-17T11:54:47;97487.00;;;28.87
40624;BMP280;26325;48.594;11.650;2022-10-17T12:08:44;97486.97;;;30.41
40624;BMP280;26325;48.594;11.650;2022-10-17T12:11:25;97476.59;;;30.24
40624;BMP280;26325;48.594;11.650;2022-10-17T12:13:54;97468.63;;;30.24
40624;BMP280;26325;48.594;11.650;2022-10-17T12:18:51;97471.22;;;29.41
40624;BMP280;26325;48.594;11.650;2022-10-17T12:21:54;97464.56;;;30.00
40624;BMP280;26325;48.594;11.650;2022-10-17T12:24:35;97462.50;;;30.09
40624;BMP280;26325;48.594;11.650;2022-10-17T12:29:45;97463.03;;;29.22
40624;BMP280;26325;48.594;11.650;2022-10-17T12:32:16;97468.16;;;28.57
40624;BMP280;26325;48.594;11.650;2022-10-17T12:34:52;97466.72;;;28.36
40624;BMP280;26325;48.594;11.650;2022-10-17T12:43:31;97459.41;;;29.80
40624;BMP280;26325;48.594;11.650;2022-10-17T12:45:49;97458.31;;;29.04
40624;BMP280;26325;48.594;11.650;2022-10-17T12:51:05;97456.53;;;30.42
40624;BMP280;26325;48.594;11.650;2022-10-17T12:53:53;97456.13;;;30.28
40624;BMP280;26325;48.594;11.650;2022-10-17T12:56:29;97447.09;;;30.44
40624;BMP280;26325;48.594;11.650;2022-10-17T12:58:55;97453.44;;;30.40
40624;BMP280;26325;48.594;11.650;2022-10-17T13:01:26;97465.09;;;30.81
40624;BMP280;26325;48.594;11.650;2022-10-17T13:03:52;97448.25;;;30.92
40624;BMP280;26325;48.594;11.650;2022-10-17T13:06:23;97459.75;;;30.81
40624;BMP280;26325;48.594;11.650;2022-10-17T13:08:57;97469.50;;;31.41
40624;BMP280;26325;48.594;11.650;2022-10-17T13:11:26;97453.88;;;31.06
40624;BMP280;26325;48.594;11.650;2022-10-17T13:13:54;97457.66;;;31.20
40624;BMP280;26325;48.594;11.650;2022-10-17T13:18:59;97456.84;;;30.86
40624;BMP280;26325;48.594;11.650;2022-10-17T13:21:25;97450.00;;;30.70
40624;BMP280;26325;48.594;11.650;2022-10-17T13:23:51;97457.09;;;31.30
40624;BMP280;26325;48.594;11.650;2022-10-17T13:28:45;97454.28;;;30.74
40624;BMP280;26325;48.594;11.650;2022-10-17T13:31:35;97458.88;;;31.07
40624;BMP280;26325;48.594;11.650;2022-10-17T13:34:04;97454.84;;;30.83
40624;BMP280;26325;48.594;11.650;2022-10-17T13:36:33;97466.19;;;30.80
40624;BMP280;26325;48.594;11.650;2022-10-17T13:38:59;97457.78;;;29.49
40624;BMP280;26325;48.594;11.650;2022-10-17T13:41:29;97462.47;;;29.67
40624;BMP280;26325;48.594;11.650;2022-10-17T13:43:58;97459.06;;;29.93
40624;BMP280;26325;48.594;11.650;2022-10-17T13:46:32;97458.84;;;29.09
40624;BMP280;26325;48.594;11.650;2022-10-17T13:51:50;97455.81;;;29.34
40624;BMP280;26325;48.594;11.650;2022-10-17T13:54:38;97456.88;;;28.71
40624;BMP280;26325;48.594;11.650;2022-10-17T13:57:20;97451.00;;;28.66
40624;BMP280;26325;48.594;11.650;2022-10-17T14:00:20;97463.09;;;28.87
40624;BMP280;26325;48.594;11.650;2022-10-17T14:02:46;97461.84;;;28.61
40624;BMP280;26325;48.594;11.650;2022-10-17T14:05:19;97454.44;;;28.00
40624;BMP280;26325;48.594;11.650;2022-10-17T14:07:52;97458.66;;;28.56
40624;BMP280;26325;48.594;11.650;2022-10-17T14:10:32;97462.28;;;28.75
40624;BMP280;26325;48.594;11.650;2022-10-17T14:12:58;97463.97;;;27.69
40624;BMP280;26325;48.594;11.650;2022-10-17T14:15:32;97463.19;;;27.29
40624;BMP280;26325;48.594;11.650;2022-10-17T14:18:00;97460.38;;;27.65
40624;BMP280;26325;48.594;11.650;2022-10-17T14:20:26;97455.94;;;27.57
40624;BMP280;26325;48.594;11.650;2022-10-17T14:22:54;97454.94;;;27.82
40624;BMP280;26325;48.594;11.650;2022-10-17T14:27:56;97459.66;;;26.40
40624;BMP280;26325;48.594;11.650;2022-10-17T14:30:33;97462.47;;;25.57
40624;BMP280;26325;48.594;11.650;2022-10-17T14:33:02;97461.03;;;25.02
40624;BMP280;26325;48.594;11.650;2022-10-17T14:35:31;97468.50;;;25.82
40624;BMP280;26325;48.594;11.650;2022-10-17T14:38:02;97479.28;;;25.44
40624;BMP280;26325;48.594;11.650;2022-10-17T14:40:29;97476.75;;;25.15
40624;BMP280;26325;48.594;11.650;2022-10-17T14:42:57;97473.66;;;26.49
40624;BMP280;26325;48.594;11.650;2022-10-17T14:47:49;97481.06;;;27.40
40624;BMP280;26325;48.594;11.650;2022-10-17T14:50:22;97485.75;;;26.86
40624;BMP280;26325;48.594;11.650;2022-10-17T14:55:28;97477.63;;;26.91
40624;BMP280;26325;48.594;11.650;2022-10-17T14:57:54;97486.94;;;26.97
40624;BMP280;26325;48.594;11.650;2022-10-17T15:00:21;97486.72;;;26.82
40624;BMP280;26325;48.594;11.650;2022-10-17T15:02:47;97486.69;;;26.90
40624;BMP280;26325;48.594;11.650;2022-10-17T15:05:13;97484.50;;;26.64
40624;BMP280;26325;48.594;11.650;2022-10-17T15:07:40;97489.59;;;26.24
40624;BMP280;26325;48.594;11.650;2022-10-17T15:10:08;97494.66;;;25.84
40624;BMP280;26325;48.594;11.650;2022-10-17T15:12:41;97489.22;;;25.31
40624;BMP280;26325;48.594;11.650;2022-10-17T15:15:06;97495.84;;;24.19
40624;BMP280;26325;48.594;11.650;2022-10-17T15:17:32;97493.44;;;23.80
40624;BMP280;26325;48.594;11.650;2022-10-17T15:19:58;97494.13;;;23.50
40624;BMP280;26325;48.594;11.650;2022-10-17T15:22:24;97500.53;;;23.23
40624;BMP280;26325;48.594;11.650;2022-10-17T15:24:50;97500.63;;;23.31
40624;BMP280;26325;48.594;11.650;2022-10-17T15:27:20;97502.44;;;23.10
40624;BMP280;26325;48.594;11.650;2022-10-17T15:29:46;97495.16;;;22.80
40624;BMP280;26325;48.594;11.650;2022-10-17T15:32:12;97498.56;;;22.81
40624;BMP280;26325;48.594;11.650;2022-10-17T15:34:38;97494.81;;;22.60
40624;BMP280;26325;48.594;11.650;2022-10-17T15:37:05;97506.94;;;22.30
40624;BMP280;26325;48.594;11.650;2022-10-17T15:39:33;97506.88;;;21.91
40624;BMP280;26325;48.594;11.650;2022-10-17T15:41:58;97499.00;;;22.04
40624;BMP280;26325;48.594;11.650;2022-10-17T15:44:24;97503.09;;;21.78
40624;BMP280;26325;48.594;11.650;2022-10-17T15:46:49;97517.34;;;21.05
40624;BMP280;26325;48.594;11.650;2022-10-17T15:49:17;97520.84;;;21.19
40624;BMP280;26325;48.594;11.650;2022-10-17T15:51:44;97527.06;;;20.64
40624;BMP280;26325;48.594;11.650;2022-10-17T15:54:09;97527.56;;;20.84
40624;BMP280;26325;48.594;11.650;2022-10-17T15:56:37;97534.69;;;20.61
40624;BMP280;26325;48.594;11.650;2022-10-17T15:59:06;97525.31;;;20.55
40624;BMP280;26325;48.594;11.650;2022-10-17T16:01:32;97521.56;;;19.82
40624;BMP280;26325;48.594;11.650;2022-10-17T16:03:58;97534.53;;;19.97
40624;BMP280;26325;48.594;11.650;2022-10-17T16:06:24;97531.72;;;19.88
40624;BMP280;26325;48.594;11.650;2022-10-17T16:08:50;97537.72;;;19.61
40624;BMP280;26325;48.594;11.650;2022-10-17T16:11:36;97539.94;;;19.40
40624;BMP280;26325;48.594;11.650;2022-10-17T16:14:03;97551.91;;;19.50